Time;durP1;ratioP1;P1;durP2;ratioP2;P2;SDS_P1;SDS_P2;PMS_P1;PMS_P2;Temp;Humidity;BMP_temperature;BMP_pressure;BME280_temperature;BME280_humidity;BME280_pressure;Samples;Min_cycle;Max_cycle;Signal;HPM_P1;HPM_P2
2021/07/09 04:54:39;;;;;;;14.45;6.05;;;;;;;36.47;33.45;99423.00;1696651;83;21254;-42
2021/07/09 04:57:08;;;;;;;11.88;6.03;;;;;;;36.42;32.59;99435.89;1712515;83;21495;-43
2021/07/09 04:59:35;;;;;;;11.80;5.80;;;;;;;35.71;33.51;99438.64;1785497;80;21061;-48
2021/07/09 05:02:04;;;;;;;11.95;5.70;;;;;;;35.18;34.77;99438.30;1777618;80;21013;-47
2021/07/09 05:04:31;;;;;;;17.10;5.95;;;;;;;34.82;35.78;99442.16;1779462;79;21514;-49
2021/07/09 05:07:00;;;;;;;15.38;6.47;;;;;;;34.31;36.30;99431.89;1771689;79;20999;-46
2021/07/09 05:09:28;;;;;;;12.15;6.35;;;;;;;33.89;37.26;99444.40;1764437;79;21015;-49
2021/07/09 05:11:56;;;;;;;13.28;5.90;;;;;;;33.70;37.68;99443.69;1769014;80;21039;-48
2021/07/09 05:14:27;;;;;;;13.43;5.60;;;;;;;33.53;38.03;99441.47;1760109;80;21039;-52
2021/07/09 05:16:55;;;;;;;14.40;6.00;;;;;;;33.44;38.38;99437.30;1760686;80;21584;-43
2021/07/09 05:19:23;;;;;;;18.62;5.87;;;;;;;33.33;38.54;99436.16;1755601;80;21601;-43
2021/07/09 05:21:50;;;;;;;12.43;5.12;;;;;;;33.46;38.62;99441.84;1757040;80;21041;-42
2021/07/09 05:24:19;;;;;;;17.95;6.08;;;;;;;33.55;38.39;99439.77;1757163;80;21038;-43
2021/07/09 05:26:47;;;;;;;12.25;4.90;;;;;;;33.54;38.34;99438.95;1757822;80;21076;-56
2021/07/09 05:29:15;;;;;;;17.27;5.70;;;;;;;33.51;38.40;99439.66;1768390;79;21035;-46
2021/07/09 05:31:44;;;;;;;14.80;5.45;;;;;;;33.54;38.36;99444.98;1777886;79;21566;-53
2021/07/09 05:34:11;;;;;;;12.60;5.80;;;;;;;33.55;38.22;99439.77;1781787;79;21066;-47
2021/07/09 05:36:39;;;;;;;13.50;5.95;;;;;;;33.46;38.55;99440.48;1780840;79;21161;-50
2021/07/09 05:39:08;;;;;;;18.07;5.50;;;;;;;33.46;38.63;99442.63;1754298;80;21079;-44
2021/07/09 05:41:35;;;;;;;13.05;5.17;;;;;;;33.57;38.13;99444.31;1750084;81;21588;-51
2021/07/09 05:44:03;;;;;;;14.55;5.28;;;;;;;33.66;38.13;99438.11;1754900;81;21037;-46
2021/07/09 05:46:32;;;;;;;9.63;4.83;;;;;;;33.61;38.19;99441.66;1776314;80;21044;-44
2021/07/09 05:49:00;;;;;;;10.45;4.80;;;;;;;33.60;37.99;99438.14;1752654;79;21582;-42
2021/07/09 05:51:28;;;;;;;12.65;5.03;;;;;;;33.52;37.61;99437.72;1723671;82;21012;-48
2021/07/09 05:53:56;;;;;;;8.05;4.35;;;;;;;33.54;37.54;99442.26;1747399;81;21098;-51
2021/07/09 05:56:25;;;;;;;10.18;4.40;;;;;;;33.67;37.09;99439.73;1748680;81;21522;-47
2021/07/09 05:58:57;;;;;;;9.75;4.87;;;;;;;33.68;36.79;99443.25;1745144;81;21047;-44
2021/07/09 06:01:28;;;;;;;15.80;5.10;;;;;;;33.72;36.79;99438.12;1755178;80;20994;-43
2021/07/09 06:03:58;;;;;;;9.08;4.37;;;;;;;33.73;36.72;99442.44;1759768;80;21334;-45
2021/07/09 06:06:26;;;;;;;13.18;4.28;;;;;;;33.69;36.67;99436.64;1778460;80;21454;-51
2021/07/09 06:08:53;;;;;;;12.90;4.42;;;;;;;33.77;36.35;99442.52;1778524;80;21536;-45
2021/07/09 06:11:27;;;;;;;11.33;4.03;;;;;;;33.83;36.49;99437.81;1763596;80;21453;-45
2021/07/09 06:13:56;;;;;;;9.60;4.12;;;;;;;33.89;35.78;99430.16;1746114;80;21010;-46
2021/07/09 06:16:23;;;;;;;9.28;4.33;;;;;;;33.76;36.06;99430.78;1756708;80;21065;-46
2021/07/09 06:18:51;;;;;;;9.18;4.12;;;;;;;33.81;36.17;99435.22;1776030;79;21024;-42
2021/07/09 06:21:19;;;;;;;8.93;3.92;;;;;;;33.94;35.49;99431.88;1782387;79;22278;-49
2021/07/09 06:23:46;;;;;;;10.78;4.03;;;;;;;33.90;35.06;99426.88;1750080;80;21531;-47
2021/07/09 06:26:14;;;;;;;14.47;4.15;;;;;;;33.87;35.50;99423.45;1777100;79;21001;-48
2021/07/09 06:28:42;;;;;;;12.63;4.10;;;;;;;33.88;35.46;99423.67;1780462;79;21536;-51
2021/07/09 06:31:11;;;;;;;9.68;3.83;;;;;;;33.94;35.37;99426.41;1783426;79;21098;-47
2021/07/09 06:33:40;;;;;;;12.87;3.60;;;;;;;33.91;35.72;99425.15;1756746;79;21003;-56
2021/07/09 06:36:08;;;;;;;15.00;4.10;;;;;;;34.01;35.10;99421.94;1747979;81;21260;-52
2021/07/09 06:38:37;;;;;;;8.00;3.37;;;;;;;34.06;34.87;99416.77;1751252;80;21525;-43
2021/07/09 06:41:05;;;;;;;9.90;3.40;;;;;;;33.95;34.02;99415.14;1758084;79;21015;-49
2021/07/09 06:43:33;;;;;;;8.15;3.42;;;;;;;33.79;34.24;99413.70;1764910;79;21542;-47
2021/07/09 06:46:02;;;;;;;8.05;3.37;;;;;;;33.78;34.11;99414.05;1745399;81;21028;-48
2021/07/09 06:48:29;;;;;;;10.08;3.70;;;;;;;33.78;34.10;99416.22;1759866;80;21032;-47
2021/07/09 06:50:57;;;;;;;5.08;3.30;;;;;;;33.86;34.54;99413.09;1769815;80;21036;-55
2021/07/09 06:53:26;;;;;;;9.95;3.58;;;;;;;34.13;34.06;99418.34;1775494;79;21078;-46
2021/07/09 06:55:54;;;;;;;8.25;3.40;;;;;;;34.30;33.91;99402.16;1734487;81;21019;-45
2021/07/09 06:58:22;;;;;;;12.20;3.73;;;;;;;34.38;32.94;99399.02;1719829;81;20955;-42
2021/07/09 07:00:50;;;;;;;8.60;3.50;;;;;;;34.38;33.21;99394.91;1745418;80;21075;-55
2021/07/09 07:03:18;;;;;;;6.75;3.12;;;;;;;34.30;33.05;99395.31;1767291;80;20996;-49
2021/07/09 07:05:49;;;;;;;11.00;3.45;;;;;;;34.14;33.25;99394.52;1777713;80;21061;-47
2021/07/09 07:08:23;;;;;;;9.43;3.65;;;;;;;34.08;33.54;99393.98;1725721;82;21125;-47
2021/07/09 07:10:55;;;;;;;7.45;3.02;;;;;;;34.06;33.33;99394.30;1723249;81;21648;-51
2021/07/09 07:13:25;;;;;;;10.23;3.30;;;;;;;34.05;33.63;99389.20;1735573;80;21053;-44
2021/07/09 07:15:56;;;;;;;11.70;4.20;;;;;;;34.06;33.66;99389.41;1751714;80;21076;-43
2021/07/09 07:18:25;;;;;;;12.18;3.62;;;;;;;34.12;33.60;99394.84;1758233;80;21630;-48
2021/07/09 07:20:53;;;;;;;7.00;3.30;;;;;;;34.19;33.06;99391.52;1753362;81;21037;-45
2021/07/09 07:23:21;;;;;;;11.22;4.33;;;;;;;34.27;33.20;99387.80;1752002;81;22304;-55
2021/07/09 07:25:49;;;;;;;8.95;3.55;;;;;;;34.35;32.28;99385.45;1763776;81;21084;-43
2021/07/09 07:28:20;;;;;;;10.90;3.92;;;;;;;34.34;32.06;99383.29;1760477;80;21074;-47
2021/07/09 07:30:48;;;;;;;;;;;;;;;34.27;32.05;99380.96;1761758;80;21489;-49
2021/07/09 07:33:15;;;;;;;10.72;3.40;;;;;;;34.17;32.36;99376.02;1755513;80;20434;-48
2021/07/09 07:35:44;;;;;;;9.75;3.80;;;;;;;33.96;32.13;99371.60;1756437;80;21544;-45
2021/07/09 07:38:13;;;;;;;9.10;3.50;;;;;;;33.80;32.27;99373.48;1755678;80;21014;-56
2021/07/09 07:40:46;;;;;;;8.90;3.77;;;;;;;33.64;32.42;99372.65;1763115;81;21003;-45
2021/07/09 07:43:14;;;;;;;9.90;3.67;;;;;;;33.46;32.91;99380.36;1750383;81;21059;-44
2021/07/09 07:45:44;;;;;;;14.83;3.75;;;;;;;33.42;33.12;99383.55;1727041;81;21018;-48
2021/07/09 07:48:13;;;;;;;8.08;3.58;;;;;;;33.36;32.95;99392.53;1750591;80;21016;-49
2021/07/09 07:50:42;;;;;;;9.55;3.70;;;;;;;33.17;33.44;99384.97;1752841;80;21034;-48
2021/07/09 07:53:11;;;;;;;12.20;3.70;;;;;;;32.88;33.57;99381.17;1751974;80;21502;-46
2021/07/09 07:55:39;;;;;;;10.30;3.95;;;;;;;32.63;33.82;99378.44;1757117;80;21073;-44
2021/07/09 07:58:07;;;;;;;11.73;3.60;;;;;;;32.33;34.41;99375.66;1755762;80;20967;-44
2021/07/09 08:00:37;;;;;;;9.25;3.87;;;;;;;32.03;34.85;99379.14;1763946;80;21150;-49
2021/07/09 08:03:04;;;;;;;8.58;3.50;;;;;;;31.81;35.70;99385.78;1762743;81;21050;-45
2021/07/09 08:05:36;;;;;;;10.68;3.75;;;;;;;31.58;34.90;99388.05;1755401;81;21536;-49
2021/07/09 08:08:06;;;;;;;10.35;3.80;;;;;;;31.31;36.31;99382.05;1758283;80;21041;-46
2021/07/09 08:10:35;;;;;;;10.53;3.70;;;;;;;31.10;36.59;99372.47;1773107;80;21486;-53
2021/07/09 08:13:04;;;;;;;14.70;3.80;;;;;;;30.96;36.04;99373.84;1770662;80;21022;-53
2021/07/09 08:15:33;;;;;;;19.10;4.10;;;;;;;30.73;36.58;99380.94;1759296;80;21110;-45
2021/07/09 08:18:00;;;;;;;19.92;5.03;;;;;;;30.52;36.87;99376.80;1755655;80;20983;-43
2021/07/09 08:20:28;;;;;;;21.40;3.83;;;;;;;30.40;36.88;99375.34;1768036;79;21038;-46
2021/07/09 08:22:57;;;;;;;6.92;3.20;;;;;;;30.24;36.63;99381.08;1761206;80;21018;-46
2021/07/09 08:25:26;;;;;;;13.75;3.75;;;;;;;30.09;36.56;99380.44;1766623;80;21035;-55
2021/07/09 08:27:56;;;;;;;13.30;3.05;;;;;;;29.88;36.52;99367.33;1744523;80;21054;-44
2021/07/09 08:30:23;;;;;;;15.65;3.85;;;;;;;29.62;36.74;99380.94;1754181;81;21699;-47
2021/07/09 08:32:51;;;;;;;8.03;3.05;;;;;;;29.47;37.44;99377.31;1755248;81;21489;-46
2021/07/09 08:35:20;;;;;;;15.55;3.87;;;;;;;29.43;38.13;99377.17;1759955;80;21015;-51
2021/07/09 08:37:49;;;;;;;15.63;4.30;;;;;;;29.44;38.29;99380.12;1739942;80;21059;-50
2021/07/09 08:40:18;;;;;;;10.00;3.40;;;;;;;29.42;38.51;99385.61;1773892;79;21027;-47
2021/07/09 08:42:50;;;;;;;9.20;3.30;;;;;;;29.34;37.80;99381.80;1783111;80;21490;-46
2021/07/09 08:45:22;;;;;;;11.57;3.67;;;;;;;29.20;38.15;99375.73;1785321;79;21643;-48
2021/07/09 08:47:51;;;;;;;11.90;4.12;;;;;;;29.08;38.03;99380.44;1764939;80;21035;-43
2021/07/09 08:50:20;;;;;;;11.63;3.50;;;;;;;29.00;39.11;99375.77;1740985;81;21129;-51
2021/07/09 08:52:47;;;;;;;8.85;3.00;;;;;;;28.98;38.62;99367.95;1762022;80;21039;-41
2021/07/09 08:55:18;;;;;;;10.43;3.10;;;;;;;28.93;38.91;99376.81;1758347;81;21000;-55
2021/07/09 08:57:46;;;;;;;4.70;2.90;;;;;;;28.86;38.50;99370.46;1766036;80;21517;-49
2021/07/09 09:00:28;;;;;;;6.65;3.20;;;;;;;28.81;38.46;99374.12;1774472;80;21075;-55
2021/07/09 09:02:56;;;;;;;7.03;2.92;;;;;;;28.79;39.38;99366.06;1753874;79;21523;-46
2021/07/09 09:05:28;;;;;;;11.83;2.90;;;;;;;28.82;39.00;99369.48;1770919;80;21556;-46
2021/07/09 09:08:03;;;;;;;10.40;3.42;;;;;;;28.82;38.87;99364.86;1779372;80;21065;-45
2021/07/09 09:10:45;;;;;;;6.72;2.95;;;;;;;28.86;39.08;99355.55;1768723;80;21034;-48
2021/07/09 09:13:20;;;;;;;11.38;3.12;;;;;;;28.88;39.08;99365.51;1755290;81;21073;-48
2021/07/09 09:16:10;;;;;;;7.65;3.10;;;;;;;28.84;38.48;99364.53;1763483;80;21096;-46
2021/07/09 09:18:44;;;;;;;16.20;3.47;;;;;;;28.73;38.74;99367.30;1760867;80;21022;-48
2021/07/09 09:21:21;;;;;;;9.98;3.40;;;;;;;28.71;39.11;99358.69;1778163;80;21581;-46
2021/07/09 09:23:54;;;;;;;11.30;3.27;;;;;;;28.76;39.66;99355.83;1777372;80;21014;-47
2021/07/09 09:26:44;;;;;;;9.93;3.00;;;;;;;28.80;38.68;99346.75;1773968;80;21063;-47
2021/07/09 09:29:27;;;;;;;7.75;3.10;;;;;;;28.76;39.23;99348.49;1770103;80;21496;-47
2021/07/09 09:31:57;;;;;;;8.80;2.98;;;;;;;28.77;38.63;99354.16;1758482;80;21596;-46
2021/07/09 09:34:48;;;;;;;6.30;3.03;;;;;;;28.73;38.43;99346.95;1774686;80;21052;-47
2021/07/09 09:37:21;;;;;;;;;;;;;;;28.67;39.22;99351.73;1780800;80;21220;-46
2021/07/09 09:39:49;;;;;;;7.45;3.40;;;;;;;28.69;39.17;99352.23;1764413;80;20105;-47
2021/07/09 09:42:22;;;;;;;10.00;3.87;;;;;;;28.74;39.27;99349.38;1777233;80;21104;-45
2021/07/09 09:45:02;;;;;;;10.55;3.30;;;;;;;28.72;39.00;99343.45;1779680;80;21552;-48
2021/07/09 09:47:34;;;;;;;6.40;3.10;;;;;;;28.70;39.19;99341.62;1765609;80;21045;-50
2021/07/09 09:50:06;;;;;;;5.55;3.02;;;;;;;28.66;38.86;99329.00;1756799;80;20974;-46
2021/07/09 09:52:37;;;;;;;4.55;3.20;;;;;;;28.61;38.84;99334.57;1767937;80;21086;-47
2021/07/09 09:55:07;;;;;;;8.08;3.30;;;;;;;28.56;38.64;99326.84;1774102;80;21074;-46
2021/07/09 09:57:37;;;;;;;8.70;3.25;;;;;;;28.55;38.57;99323.06;1774682;80;21082;-47
2021/07/09 10:00:10;;;;;;;8.50;3.20;;;;;;;28.52;38.17;99315.02;1775131;80;21049;-46
2021/07/09 10:02:38;;;;;;;6.22;3.17;;;;;;;28.52;38.54;99319.64;1744169;80;21030;-46
2021/07/09 10:05:07;;;;;;;6.47;3.02;;;;;;;28.53;38.45;99319.88;1761804;80;20979;-47
2021/07/09 10:07:35;;;;;;;13.80;3.80;;;;;;;28.45;38.17;99322.03;1752949;80;21081;-47
2021/07/09 10:10:09;;;;;;;6.28;2.75;;;;;;;28.28;40.22;99317.31;1758325;80;21427;-48
2021/07/09 10:12:36;;;;;;;10.95;3.55;;;;;;;28.33;39.46;99296.05;1757154;79;20982;-46
2021/07/09 10:15:06;;;;;;;6.40;3.27;;;;;;;28.32;39.39;99310.16;1762986;80;21475;-48
2021/07/09 10:17:34;;;;;;;7.92;2.87;;;;;;;28.34;39.58;99312.58;1749255;80;21045;-46
2021/07/09 10:20:03;;;;;;;9.10;2.92;;;;;;;28.39;39.97;99305.63;1780959;79;21530;-46
2021/07/09 10:22:31;;;;;;;4.72;3.02;;;;;;;28.41;38.75;99303.42;1734076;80;21438;-47
2021/07/09 10:24:58;;;;;;;5.47;2.90;;;;;;;28.40;38.88;99305.91;1778651;80;21002;-46
2021/07/09 10:27:27;;;;;;;7.10;3.05;;;;;;;28.42;38.55;99309.88;1742782;80;21072;-46
2021/07/09 10:30:05;;;;;;;8.38;2.58;;;;;;;28.44;38.09;99311.71;1779109;80;21085;-50
2021/07/09 10:32:38;;;;;;;8.48;2.90;;;;;;;28.47;38.08;99304.31;1746579;81;21047;-48
2021/07/09 10:35:13;;;;;;;7.55;2.80;;;;;;;28.45;39.01;99296.27;1760492;79;21520;-47
2021/07/09 10:37:41;;;;;;;6.90;3.20;;;;;;;28.44;38.58;99297.36;1742306;80;21057;-46
2021/07/09 10:40:20;;;;;;;8.65;2.90;;;;;;;28.45;39.06;99297.63;1779433;79;21527;-47
2021/07/09 10:42:49;;;;;;;4.58;2.67;;;;;;;28.43;38.92;99288.98;1766752;80;21034;-48
2021/07/09 10:45:25;;;;;;;6.80;2.87;;;;;;;28.43;39.08;99281.66;1757063;80;21532;-47
2021/07/09 10:48:16;;;;;;;6.03;2.87;;;;;;;28.48;38.87;99291.55;1757544;80;21543;-47
2021/07/09 10:50:52;;;;;;;5.15;2.98;;;;;;;28.53;37.92;99279.20;1758937;80;21121;-47
2021/07/09 10:53:29;;;;;;;7.60;2.70;;;;;;;28.57;38.92;99273.41;1759753;79;21051;-49
2021/07/09 10:56:08;;;;;;;5.40;3.20;;;;;;;28.56;38.44;99267.74;1767028;80;22247;-47
2021/07/09 10:58:42;;;;;;;6.53;2.72;;;;;;;28.55;39.53;99268.27;1776982;80;21453;-47
2021/07/09 11:01:13;;;;;;;10.00;2.85;;;;;;;28.58;38.65;99269.56;1759163;81;21094;-50
2021/07/09 11:03:57;;;;;;;9.30;2.62;;;;;;;28.56;38.71;99271.25;1755308;81;21526;-47
2021/07/09 11:06:36;;;;;;;18.07;3.40;;;;;;;28.51;38.51;99271.40;1757588;80;21018;-47
2021/07/09 11:09:11;;;;;;;6.65;2.55;;;;;;;28.50;37.15;99270.34;1755763;80;21481;-49
2021/07/09 11:11:52;;;;;;;6.87;3.00;;;;;;;28.47;37.68;99277.20;1750786;81;21007;-45
2021/07/09 11:14:34;;;;;;;5.83;2.98;;;;;;;28.51;38.26;99265.97;1747696;81;21012;-47
2021/07/09 11:17:21;;;;;;;5.70;3.20;;;;;;;28.58;37.06;99264.14;1773388;79;21068;-48
2021/07/09 11:19:49;;;;;;;9.45;2.85;;;;;;;28.56;36.50;99262.32;1775325;80;21256;-47
2021/07/09 11:22:18;;;;;;;6.62;2.85;;;;;;;28.54;37.17;99273.45;1757409;81;21007;-46
2021/07/09 11:24:56;;;;;;;7.22;2.70;;;;;;;28.57;36.07;99263.91;1747283;81;21011;-49
2021/07/09 11:27:25;;;;;;;6.05;2.22;;;;;;;28.56;36.36;99257.69;1747564;80;21575;-51
2021/07/09 11:30:03;;;;;;;6.95;2.98;;;;;;;28.57;37.16;99255.22;1733461;80;21042;-47
2021/07/09 11:32:24;;;;;;;4.87;2.77;;;;;;;28.60;36.50;99252.97;1755817;81;21524;-48
2021/07/09 11:34:56;;;;;;;4.67;2.20;;;;;;;28.50;36.35;99258.13;1756110;80;21026;-52
2021/07/09 11:37:26;;;;;;;5.50;2.80;;;;;;;28.45;36.52;99250.97;1757112;80;21035;-48
2021/07/09 11:40:16;;;;;;;5.83;2.47;;;;;;;28.48;35.57;99251.68;1760265;80;21679;-48
2021/07/09 11:42:40;;;;;;;7.47;2.60;;;;;;;28.51;36.15;99254.33;1756038;80;21094;-45
2021/07/09 11:45:10;;;;;;;4.30;2.58;;;;;;;28.58;35.51;99258.16;1749215;81;21597;-47
2021/07/09 11:47:41;;;;;;;5.75;2.42;;;;;;;28.62;35.38;99246.13;1753991;81;21553;-46
2021/07/09 11:50:18;;;;;;;5.78;2.58;;;;;;;28.62;34.69;99250.73;1753366;81;21085;-47
2021/07/09 11:52:52;;;;;;;13.15;3.17;;;;;;;28.58;34.74;99235.11;1742968;81;21077;-49
2021/07/09 11:55:31;;;;;;;6.47;3.00;;;;;;;28.57;33.93;99244.37;1705826;83;21137;-51
2021/07/09 11:57:57;;;;;;;10.58;3.65;;;;;;;28.55;33.89;99249.29;1709964;83;21137;-53
2021/07/09 12:00:25;;;;;;;11.10;4.10;;;;;;;28.56;34.70;99243.34;1683999;83;21036;-48
2021/07/09 12:02:52;;;;;;;9.53;3.70;;;;;;;28.65;34.78;99240.06;1702530;83;21514;-47
2021/07/09 12:05:23;;;;;;;7.33;3.08;;;;;;;28.70;34.60;99243.17;1697596;83;21063;-53
2021/07/09 12:07:53;;;;;;;9.88;3.25;;;;;;;28.73;33.39;99234.39;1703443;84;21511;-47
2021/07/09 12:10:27;;;;;;;4.37;2.63;;;;;;;28.72;33.84;99240.38;1755355;80;21069;-50
2021/07/09 12:12:58;;;;;;;10.45;2.80;;;;;;;28.70;33.78;99244.53;1757319;80;21136;-47
2021/07/09 12:15:33;;;;;;;6.92;2.90;;;;;;;28.63;33.68;99230.66;1755921;80;21054;-49
2021/07/09 12:18:10;;;;;;;5.75;2.60;;;;;;;28.62;33.92;99233.10;1726525;82;21054;-52
2021/07/09 12:20:42;;;;;;;3.72;2.37;;;;;;;28.61;33.90;99224.73;1741264;81;21674;-49
2021/07/09 12:23:15;;;;;;;7.55;2.50;;;;;;;28.55;34.06;99224.89;1755536;81;21014;-50
2021/07/09 12:25:52;;;;;;;6.40;2.75;;;;;;;28.54;34.56;99221.14;1762759;80;21065;-47
2021/07/09 12:28:25;;;;;;;7.75;2.77;;;;;;;28.56;35.33;99228.42;1755667;80;20978;-50
2021/07/09 12:31:00;;;;;;;5.45;2.67;;;;;;;28.62;35.40;99226.33;1716421;82;21031;-49
2021/07/09 12:33:40;;;;;;;3.02;2.50;;;;;;;28.64;34.98;99214.62;1692528;84;21537;-48
2021/07/09 12:36:09;;;;;;;4.45;2.70;;;;;;;28.62;36.06;99214.13;1730561;82;21571;-47
2021/07/09 12:38:46;;;;;;;7.35;2.85;;;;;;;28.62;35.25;99209.52;1761923;80;21010;-49
2021/07/09 12:41:14;;;;;;;6.40;2.65;;;;;;;28.63;35.84;99211.11;1746666;81;21029;-49
2021/07/09 12:43:51;;;;;;;7.95;2.75;;;;;;;28.66;35.40;99213.73;1751849;81;21017;-51
2021/07/09 12:46:26;;;;;;;4.80;2.72;;;;;;;28.67;34.99;99201.77;1759372;80;21125;-47
2021/07/09 12:49:06;;;;;;;5.58;2.70;;;;;;;28.76;35.17;99208.00;1756221;80;21030;-48
2021/07/09 12:51:39;;;;;;;6.37;2.70;;;;;;;28.85;34.18;99207.45;1757644;80;21204;-50
2021/07/09 12:54:13;;;;;;;7.53;2.90;;;;;;;28.79;35.32;99201.39;1752270;80;20999;-48
2021/07/09 12:56:47;;;;;;;5.95;2.47;;;;;;;28.75;34.64;99205.05;1752069;80;21007;-49
